sensor_id;sensor_type;location;lat;lon;timestamp;pressure;altitude;pressure_sealevel;temperature;humidity
35878;BME280;21982;49.804;24.072;2023-02-18T00:01:56;96573.53;;;7.18;81.68
35878;BME280;21982;49.804;24.072;2023-02-18T00:04:23;96496.38;;;7.03;81.76
35878;BME280;21982;49.804;24.072;2023-02-18T00:06:48;96542.00;;;7.25;81.26
35878;BME280;21982;49.804;24.072;2023-02-18T00:09:13;96216.91;;;5.35;81.09
35878;BME280;21982;49.804;24.072;2023-02-18T00:11:39;96545.69;;;7.30;81.27
35878;BME280;21982;49.804;24.072;2023-02-18T00:14:09;96494.91;;;7.15;81.56
35878;BME280;21982;49.804;24.072;2023-02-18T00:16:35;96517.00;;;7.35;81.22
35878;BME280;21982;49.804;24.072;2023-02-18T00:19:03;96294.09;;;6.00;81.17
35878;BME280;21982;49.804;24.072;2023-02-18T00:21:29;96539.66;;;7.51;81.80
35878;BME280;21982;49.804;24.072;2023-02-18T00:23:56;96493.66;;;7.32;80.85
35878;BME280;21982;49.804;24.072;2023-02-18T00:26:22;96493.44;;;7.49;80.75
35878;BME280;21982;49.804;24.072;2023-02-18T00:28:48;96438.09;;;7.06;81.34
35878;BME280;21982;49.804;24.072;2023-02-18T00:31:18;96473.91;;;7.43;81.49
35878;BME280;21982;49.804;24.072;2023-02-18T00:33:44;96229.59;;;5.83;80.48
35878;BME280;21982;49.804;24.072;2023-02-18T00:36:12;96495.66;;;7.73;80.60
35878;BME280;21982;49.804;24.072;2023-02-18T00:38:38;96436.03;;;7.44;80.15
35878;BME280;21982;49.804;24.072;2023-02-18T00:41:04;96516.75;;;7.94;80.69
35878;BME280;21982;49.804;24.072;2023-02-18T00:43:29;96509.06;;;7.99;79.88
35878;BME280;21982;49.804;24.072;2023-02-18T00:45:55;96465.22;;;7.70;80.72
35878;BME280;21982;49.804;24.072;2023-02-18T00:48:20;96402.75;;;7.36;79.80
35878;BME280;21982;49.804;24.072;2023-02-18T00:50:46;96375.28;;;7.46;80.34
35878;BME280;21982;49.804;24.072;2023-02-18T00:53:11;96498.38;;;8.07;80.04
35878;BME280;21982;49.804;24.072;2023-02-18T00:55:42;96244.91;;;6.51;79.69
35878;BME280;21982;49.804;24.072;2023-02-18T00:58:08;96480.97;;;8.13;79.39
35878;BME280;21982;49.804;24.072;2023-02-18T01:00:34;96486.06;;;8.15;79.63
35878;BME280;21982;49.804;24.072;2023-02-18T01:02:59;96488.75;;;8.21;79.42
35878;BME280;21982;49.804;24.072;2023-02-18T01:05:25;96489.41;;;8.30;79.36
35878;BME280;21982;49.804;24.072;2023-02-18T01:07:50;96492.63;;;8.32;78.70
35878;BME280;21982;49.804;24.072;2023-02-18T01:10:16;96502.22;;;8.33;79.48
35878;BME280;21982;49.804;24.072;2023-02-18T01:12:41;96398.03;;;7.53;79.01
35878;BME280;21982;49.804;24.072;2023-02-18T01:15:07;96203.72;;;6.58;78.24
35878;BME280;21982;49.804;24.072;2023-02-18T01:17:33;96487.81;;;8.35;79.41
35878;BME280;21982;49.804;24.072;2023-02-18T01:19:58;96471.19;;;8.35;78.29
35878;BME280;21982;49.804;24.072;2023-02-18T01:22:26;96440.13;;;8.02;78.72
35878;BME280;21982;49.804;24.072;2023-02-18T01:24:53;96488.25;;;8.39;78.70
35878;BME280;21982;49.804;24.072;2023-02-18T01:27:20;96421.41;;;7.91;77.84
35878;BME280;21982;49.804;24.072;2023-02-18T01:29:46;96471.19;;;8.35;77.94
35878;BME280;21982;49.804;24.072;2023-02-18T01:32:11;96384.94;;;7.94;78.11
35878;BME280;21982;49.804;24.072;2023-02-18T01:34:36;96486.13;;;8.56;77.88
35878;BME280;21982;49.804;24.072;2023-02-18T01:37:04;96239.34;;;7.17;77.53
35878;BME280;21982;49.804;24.072;2023-02-18T01:39:30;96476.44;;;8.69;77.50
35878;BME280;21982;49.804;24.072;2023-02-18T01:41:58;96448.59;;;8.60;77.43
35878;BME280;21982;49.804;24.072;2023-02-18T01:44:26;96472.47;;;8.87;76.78
35878;BME280;21982;49.804;24.072;2023-02-18T01:46:52;96463.31;;;8.83;77.37
35878;BME280;21982;49.804;24.072;2023-02-18T01:49:21;96459.66;;;8.84;76.73
35878;BME280;21982;49.804;24.072;2023-02-18T01:52:00;96459.69;;;8.90;76.16
35878;BME280;21982;49.804;24.072;2023-02-18T01:54:33;96358.78;;;8.34;76.17
35878;BME280;21982;49.804;24.072;2023-02-18T02:00:06;96434.50;;;8.88;76.61
35878;BME280;21982;49.804;24.072;2023-02-18T02:02:34;96448.09;;;8.85;76.57
35878;BME280;21982;49.804;24.072;2023-02-18T02:05:02;96385.81;;;8.43;76.75
35878;BME280;21982;49.804;24.072;2023-02-18T02:07:30;96310.78;;;8.11;76.71
35878;BME280;21982;49.804;24.072;2023-02-18T02:09:57;96388.91;;;8.59;76.15
35878;BME280;21982;49.804;24.072;2023-02-18T02:20:47;96340.97;;;8.49;76.01
35878;BME280;21982;49.804;24.072;2023-02-18T02:36:23;96341.03;;;8.62;75.23
35878;BME280;21982;49.804;24.072;2023-02-18T02:39:02;96412.19;;;9.10;75.83
35878;BME280;21982;49.804;24.072;2023-02-18T02:44:38;96401.63;;;9.10;75.30
35878;BME280;21982;49.804;24.072;2023-02-18T02:47:10;96396.56;;;9.15;75.51
35878;BME280;21982;49.804;24.072;2023-02-18T02:49:48;96378.69;;;9.17;75.19
35878;BME280;21982;49.804;24.072;2023-02-18T02:52:32;96351.41;;;8.84;75.13
35878;BME280;21982;49.804;24.072;2023-02-18T02:54:57;96321.34;;;8.71;75.27
35878;BME280;21982;49.804;24.072;2023-02-18T02:59:52;96330.47;;;8.76;74.99
35878;BME280;21982;49.804;24.072;2023-02-18T03:16:18;96403.91;;;9.39;74.00
35878;BME280;21982;49.804;24.072;2023-02-18T03:18:36;96177.47;;;7.88;73.73
35878;BME280;21982;49.804;24.072;2023-02-18T03:26:23;96267.69;;;8.38;73.99
35878;BME280;21982;49.804;24.072;2023-02-18T03:28:51;96422.78;;;9.36;74.09
35878;BME280;21982;49.804;24.072;2023-02-18T03:31:22;96413.44;;;9.40;74.21
35878;BME280;21982;49.804;24.072;2023-02-18T03:33:57;96430.13;;;9.41;74.21
35878;BME280;21982;49.804;24.072;2023-02-18T03:36:24;96402.25;;;9.12;73.97
35878;BME280;21982;49.804;24.072;2023-02-18T03:38:53;96421.59;;;9.32;73.80
35878;BME280;21982;49.804;24.072;2023-02-18T03:41:20;96359.97;;;8.92;73.63
35878;BME280;21982;49.804;24.072;2023-02-18T03:43:53;96428.06;;;9.36;73.17
35878;BME280;21982;49.804;24.072;2023-02-18T03:46:22;96292.06;;;8.47;73.35
35878;BME280;21982;49.804;24.072;2023-02-18T03:48:48;96358.06;;;8.66;73.14
35878;BME280;21982;49.804;24.072;2023-02-18T03:51:13;96420.34;;;9.22;73.29
35878;BME280;21982;49.804;24.072;2023-02-18T03:53:39;96412.84;;;9.25;73.06
35878;BME280;21982;49.804;24.072;2023-02-18T03:56:07;96418.09;;;9.12;73.02
35878;BME280;21982;49.804;24.072;2023-02-18T03:58:33;96331.69;;;8.60;72.43
35878;BME280;21982;49.804;24.072;2023-02-18T04:00:58;96438.63;;;9.23;72.31
35878;BME280;21982;49.804;24.072;2023-02-18T04:03:23;96444.09;;;9.15;72.58
35878;BME280;21982;49.804;24.072;2023-02-18T04:05:49;96430.69;;;9.10;72.16
35878;BME280;21982;49.804;24.072;2023-02-18T04:08:14;96310.81;;;8.17;71.97
35878;BME280;21982;49.804;24.072;2023-02-18T04:10:39;96343.94;;;8.33;71.96
35878;BME280;21982;49.804;24.072;2023-02-18T04:13:05;96408.84;;;8.75;71.76
35878;BME280;21982;49.804;24.072;2023-02-18T04:15:30;96360.22;;;8.43;71.63
35878;BME280;21982;49.804;24.072;2023-02-18T04:17:56;96446.69;;;9.02;70.53
35878;BME280;21982;49.804;24.072;2023-02-18T04:20:21;96437.38;;;8.99;70.33
35878;BME280;21982;49.804;24.072;2023-02-18T04:22:47;96437.78;;;8.96;69.18
35878;BME280;21982;49.804;24.072;2023-02-18T04:25:12;96418.84;;;8.86;67.60
35878;BME280;21982;49.804;24.072;2023-02-18T04:27:38;96378.66;;;8.36;66.78
35878;BME280;21982;49.804;24.072;2023-02-18T04:30:04;96418.34;;;8.56;66.96
35878;BME280;21982;49.804;24.072;2023-02-18T04:32:29;96470.88;;;8.92;65.76
35878;BME280;21982;49.804;24.072;2023-02-18T04:34:56;96392.28;;;8.40;65.69
35878;BME280;21982;49.804;24.072;2023-02-18T04:37:21;96334.91;;;8.07;65.23
35878;BME280;21982;49.804;24.072;2023-02-18T04:39:46;96496.78;;;8.76;65.31
35878;BME280;21982;49.804;24.072;2023-02-18T04:42:12;96474.41;;;8.71;64.95
35878;BME280;21982;49.804;24.072;2023-02-18T04:44:37;96478.25;;;8.69;65.04
35878;BME280;21982;49.804;24.072;2023-02-18T04:47:04;96372.34;;;7.90;65.22
35878;BME280;21982;49.804;24.072;2023-02-18T04:49:30;96442.31;;;8.27;64.73
35878;BME280;21982;49.804;24.072;2023-02-18T04:52:04;96497.75;;;8.68;64.93
35878;BME280;21982;49.804;24.072;2023-02-18T04:54:37;96461.50;;;8.42;64.58
35878;BME280;21982;49.804;24.072;2023-02-18T04:57:02;96507.72;;;8.66;64.00
35878;BME280;21982;49.804;24.072;2023-02-18T04:59:28;96507.72;;;8.66;64.25
35878;BME280;21982;49.804;24.072;2023-02-18T05:01:53;96485.09;;;8.50;64.11
35878;BME280;21982;49.804;24.072;2023-02-18T05:04:18;96515.19;;;8.62;64.74
35878;BME280;21982;49.804;24.072;2023-02-18T05:06:44;96328.72;;;7.53;64.37
35878;BME280;21982;49.804;24.072;2023-02-18T05:09:10;96351.03;;;7.57;64.30
35878;BME280;21982;49.804;24.072;2023-02-18T05:11:35;96466.06;;;8.27;63.90
35878;BME280;21982;49.804;24.072;2023-02-18T05:14:01;96285.63;;;7.04;63.71
35878;BME280;21982;49.804;24.072;2023-02-18T05:16:26;96550.50;;;8.61;63.63
35878;BME280;21982;49.804;24.072;2023-02-18T05:18:52;96537.28;;;8.55;64.19
35878;BME280;21982;49.804;24.072;2023-02-18T05:21:17;96440.06;;;7.89;64.01
35878;BME280;21982;49.804;24.072;2023-02-18T05:23:42;96401.81;;;7.72;63.70
35878;BME280;21982;49.804;24.072;2023-02-18T05:26:08;96499.88;;;8.17;62.94
35878;BME280;21982;49.804;24.072;2023-02-18T05:28:33;96541.44;;;8.43;62.25
35878;BME280;21982;49.804;24.072;2023-02-18T05:30:59;96456.63;;;7.83;61.67
35878;BME280;21982;49.804;24.072;2023-02-18T05:33:25;96535.75;;;8.39;61.49
35878;BME280;21982;49.804;24.072;2023-02-18T05:35:50;96493.47;;;8.04;61.24
35878;BME280;21982;49.804;24.072;2023-02-18T05:38:16;96553.59;;;8.37;61.14
35878;BME280;21982;49.804;24.072;2023-02-18T05:40:41;96564.31;;;8.35;60.63
35878;BME280;21982;49.804;24.072;2023-02-18T05:43:06;96546.88;;;8.34;59.77
35878;BME280;21982;49.804;24.072;2023-02-18T05:45:32;96542.53;;;8.27;59.93
35878;BME280;21982;49.804;24.072;2023-02-18T05:47:57;96558.81;;;8.30;59.79
35878;BME280;21982;49.804;24.072;2023-02-18T05:50:23;96575.81;;;8.28;59.62
35878;BME280;21982;49.804;24.072;2023-02-18T05:52:48;96474.31;;;7.89;58.89
35878;BME280;21982;49.804;24.072;2023-02-18T05:55:14;96520.56;;;7.92;58.83
35878;BME280;21982;49.804;24.072;2023-02-18T05:57:39;96383.75;;;6.98;57.58
35878;BME280;21982;49.804;24.072;2023-02-18T06:00:06;96494.66;;;7.95;57.67
35878;BME280;21982;49.804;24.072;2023-02-18T06:02:33;96554.41;;;7.88;57.51
35878;BME280;21982;49.804;24.072;2023-02-18T06:04:58;96500.19;;;7.36;57.52
35878;BME280;21982;49.804;24.072;2023-02-18T06:07:24;96514.25;;;7.44;57.25
35878;BME280;21982;49.804;24.072;2023-02-18T06:09:49;96495.81;;;7.22;56.50
35878;BME280;21982;49.804;24.072;2023-02-18T06:12:14;96598.00;;;7.69;56.55
35878;BME280;21982;49.804;24.072;2023-02-18T06:14:40;96417.13;;;6.55;56.63
35878;BME280;21982;49.804;24.072;2023-02-18T06:17:07;96594.69;;;7.61;56.14
35878;BME280;21982;49.804;24.072;2023-02-18T06:19:34;96577.97;;;7.54;56.50
35878;BME280;21982;49.804;24.072;2023-02-18T06:22:00;96573.09;;;7.51;56.40
35878;BME280;21982;49.804;24.072;2023-02-18T06:24:25;96585.63;;;7.49;55.92
35878;BME280;21982;49.804;24.072;2023-02-18T06:26:50;96576.28;;;7.31;56.28
35878;BME280;21982;49.804;24.072;2023-02-18T06:29:16;96579.47;;;7.42;55.92
35878;BME280;21982;49.804;24.072;2023-02-18T06:31:41;96610.97;;;7.50;56.07
35878;BME280;21982;49.804;24.072;2023-02-18T06:34:07;96608.34;;;7.50;56.04
35878;BME280;21982;49.804;24.072;2023-02-18T06:36:32;96379.34;;;6.27;55.69
35878;BME280;21982;49.804;24.072;2023-02-18T06:38:57;96549.38;;;7.15;56.41
35878;BME280;21982;49.804;24.072;2023-02-18T06:41:23;96606.31;;;7.52;56.04
35878;BME280;21982;49.804;24.072;2023-02-18T06:43:50;96606.50;;;7.50;55.93
35878;BME280;21982;49.804;24.072;2023-02-18T06:46:15;96620.69;;;7.49;56.05
35878;BME280;21982;49.804;24.072;2023-02-18T06:48:40;96454.13;;;6.54;55.82
35878;BME280;21982;49.804;24.072;2023-02-18T06:51:07;96471.41;;;6.78;55.96
35878;BME280;21982;49.804;24.072;2023-02-18T06:53:32;96597.16;;;7.48;56.35
35878;BME280;21982;49.804;24.072;2023-02-18T06:55:58;96546.97;;;7.34;56.66
35878;BME280;21982;49.804;24.072;2023-02-18T06:58:23;96575.66;;;7.29;56.56
35878;BME280;21982;49.804;24.072;2023-02-18T07:00:50;96582.34;;;7.47;55.99
35878;BME280;21982;49.804;24.072;2023-02-18T07:03:16;96605.28;;;7.67;56.48
35878;BME280;21982;49.804;24.072;2023-02-18T07:05:41;96546.59;;;7.37;56.55
35878;BME280;21982;49.804;24.072;2023-02-18T07:08:07;96485.50;;;7.06;56.42
35878;BME280;21982;49.804;24.072;2023-02-18T07:10:32;96587.19;;;7.64;56.43
35878;BME280;21982;49.804;24.072;2023-02-18T07:12:58;96560.66;;;7.45;56.77
35878;BME280;21982;49.804;24.072;2023-02-18T07:15:23;96395.81;;;6.50;56.49
35878;BME280;21982;49.804;24.072;2023-02-18T07:17:50;96588.66;;;7.67;56.45
35878;BME280;21982;49.804;24.072;2023-02-18T07:20:16;96595.19;;;7.71;56.59
35878;BME280;21982;49.804;24.072;2023-02-18T07:22:41;96593.53;;;7.70;56.82
35878;BME280;21982;49.804;24.072;2023-02-18T07:25:07;96545.75;;;7.52;55.92
35878;BME280;21982;49.804;24.072;2023-02-18T07:27:32;96503.06;;;7.20;55.91
35878;BME280;21982;49.804;24.072;2023-02-18T07:29:57;96522.19;;;7.29;55.93
35878;BME280;21982;49.804;24.072;2023-02-18T07:32:23;96571.09;;;7.74;55.42
35878;BME280;21982;49.804;24.072;2023-02-18T07:34:50;96512.47;;;7.29;55.28
35878;BME280;21982;49.804;24.072;2023-02-18T07:37:17;96519.06;;;7.40;55.97
35878;BME280;21982;49.804;24.072;2023-02-18T07:39:42;96582.09;;;7.63;55.26
35878;BME280;21982;49.804;24.072;2023-02-18T07:42:12;96584.03;;;7.90;54.78
35878;BME280;21982;49.804;24.072;2023-02-18T07:44:39;96574.47;;;7.89;54.68
35878;BME280;21982;49.804;24.072;2023-02-18T07:47:05;96429.59;;;7.04;54.67
35878;BME280;21982;49.804;24.072;2023-02-18T07:49:32;96575.13;;;7.91;54.05
35878;BME280;21982;49.804;24.072;2023-02-18T07:51:57;96555.03;;;7.90;53.91
35878;BME280;21982;49.804;24.072;2023-02-18T07:54:23;96542.72;;;7.76;53.95
35878;BME280;21982;49.804;24.072;2023-02-18T07:56:48;96583.66;;;7.93;53.05
35878;BME280;21982;49.804;24.072;2023-02-18T07:59:14;96430.22;;;7.27;53.17
35878;BME280;21982;49.804;24.072;2023-02-18T08:01:40;96504.09;;;7.62;53.06
35878;BME280;21982;49.804;24.072;2023-02-18T08:04:06;96340.34;;;6.66;52.80
35878;BME280;21982;49.804;24.072;2023-02-18T08:06:45;96498.03;;;7.68;52.98
35878;BME280;21982;49.804;24.072;2023-02-18T08:09:12;96553.75;;;8.07;52.81
35878;BME280;21982;49.804;24.072;2023-02-18T08:11:38;96518.31;;;7.89;52.15
35878;BME280;21982;49.804;24.072;2023-02-18T08:14:04;96550.28;;;8.07;52.89
35878;BME280;21982;49.804;24.072;2023-02-18T08:16:29;96549.28;;;8.08;51.87
35878;BME280;21982;49.804;24.072;2023-02-18T08:18:55;96539.50;;;8.02;51.95
35878;BME280;21982;49.804;24.072;2023-02-18T08:21:23;96553.41;;;8.17;51.58
35878;BME280;21982;49.804;24.072;2023-02-18T08:23:49;96421.44;;;7.42;51.14
35878;BME280;21982;49.804;24.072;2023-02-18T08:26:15;96343.34;;;7.06;51.25
35878;BME280;21982;49.804;24.072;2023-02-18T08:28:42;96570.69;;;8.20;50.82
35878;BME280;21982;49.804;24.072;2023-02-18T08:31:18;96477.59;;;7.70;51.17
35878;BME280;21982;49.804;24.072;2023-02-18T08:33:44;96489.88;;;7.84;50.86
35878;BME280;21982;49.804;24.072;2023-02-18T08:36:09;96551.91;;;8.29;50.87
35878;BME280;21982;49.804;24.072;2023-02-18T08:38:35;96569.41;;;8.37;50.94
35878;BME280;21982;49.804;24.072;2023-02-18T08:41:06;96427.06;;;7.60;50.71
35878;BME280;21982;49.804;24.072;2023-02-18T08:43:31;96543.38;;;8.27;50.46
35878;BME280;21982;49.804;24.072;2023-02-18T08:45:57;96551.81;;;8.44;49.82
35878;BME280;21982;49.804;24.072;2023-02-18T08:48:23;96316.75;;;7.22;49.35
35878;BME280;21982;49.804;24.072;2023-02-18T08:50:49;96488.97;;;7.98;49.02
35878;BME280;21982;49.804;24.072;2023-02-18T08:53:15;96454.03;;;7.62;49.11
35878;BME280;21982;49.804;24.072;2023-02-18T08:55:40;96483.03;;;8.18;48.58
35878;BME280;21982;49.804;24.072;2023-02-18T08:58:06;96576.38;;;8.45;48.50
35878;BME280;21982;49.804;24.072;2023-02-18T09:00:32;96563.00;;;8.46;48.04
35878;BME280;21982;49.804;24.072;2023-02-18T09:02:57;96538.66;;;8.51;48.09
35878;BME280;21982;49.804;24.072;2023-02-18T09:05:23;96372.56;;;7.11;47.60
35878;BME280;21982;49.804;24.072;2023-02-18T09:07:48;96549.66;;;8.54;47.76
35878;BME280;21982;49.804;24.072;2023-02-18T09:10:14;96557.44;;;8.62;47.38
35878;BME280;21982;49.804;24.072;2023-02-18T09:12:39;96588.28;;;8.68;47.34
35878;BME280;21982;49.804;24.072;2023-02-18T09:15:04;96486.31;;;7.92;47.25
35878;BME280;21982;49.804;24.072;2023-02-18T09:17:30;96622.47;;;8.77;47.10
35878;BME280;21982;49.804;24.072;2023-02-18T09:19:55;96612.78;;;8.84;47.02
35878;BME280;21982;49.804;24.072;2023-02-18T09:22:21;96455.25;;;7.87;47.56
35878;BME280;21982;49.804;24.072;2023-02-18T09:24:46;96512.19;;;8.37;47.14
35878;BME280;21982;49.804;24.072;2023-02-18T09:27:12;96518.84;;;8.61;47.18
35878;BME280;21982;49.804;24.072;2023-02-18T09:29:39;96568.94;;;8.89;47.18
35878;BME280;21982;49.804;24.072;2023-02-18T09:32:05;96614.59;;;9.18;46.85
35878;BME280;21982;49.804;24.072;2023-02-18T09:34:31;96529.41;;;8.61;46.62
35878;BME280;21982;49.804;24.072;2023-02-18T09:36:56;96512.72;;;8.54;46.85
35878;BME280;21982;49.804;24.072;2023-02-18T09:39:22;96598.31;;;9.14;46.61
35878;BME280;21982;49.804;24.072;2023-02-18T09:41:49;96621.94;;;9.22;46.85
35878;BME280;21982;49.804;24.072;2023-02-18T09:44:51;96581.94;;;9.38;46.36
35878;BME280;21982;49.804;24.072;2023-02-18T09:47:18;96605.78;;;9.52;46.57
35878;BME280;21982;49.804;24.072;2023-02-18T09:49:52;96611.09;;;9.58;45.60
35878;BME280;21982;49.804;24.072;2023-02-18T09:52:28;96525.06;;;8.88;45.71
35878;BME280;21982;49.804;24.072;2023-02-18T09:54:54;96595.50;;;9.22;45.89
35878;BME280;21982;49.804;24.072;2023-02-18T09:57:29;96615.94;;;9.48;45.22
35878;BME280;21982;49.804;24.072;2023-02-18T10:00:03;96506.84;;;9.00;44.84
35878;BME280;21982;49.804;24.072;2023-02-18T10:02:29;96566.28;;;9.30;44.76
35878;BME280;21982;49.804;24.072;2023-02-18T10:04:56;96554.78;;;8.97;44.55
35878;BME280;21982;49.804;24.072;2023-02-18T10:07:27;96497.06;;;8.94;44.71
35878;BME280;21982;49.804;24.072;2023-02-18T10:09:55;96461.56;;;8.55;44.25
35878;BME280;21982;49.804;24.072;2023-02-18T10:12:23;96543.22;;;9.11;44.43
35878;BME280;21982;49.804;24.072;2023-02-18T10:14:55;96576.69;;;9.45;43.83
35878;BME280;21982;49.804;24.072;2023-02-18T10:17:24;96485.81;;;8.79;44.09
35878;BME280;21982;49.804;24.072;2023-02-18T10:19:51;96510.88;;;8.96;43.96
35878;BME280;21982;49.804;24.072;2023-02-18T10:22:19;96602.97;;;9.60;43.97
35878;BME280;21982;49.804;24.072;2023-02-18T10:24:51;96576.13;;;9.63;44.19
35878;BME280;21982;49.804;24.072;2023-02-18T10:27:32;96477.59;;;9.08;44.12
35878;BME280;21982;49.804;24.072;2023-02-18T10:32:43;96558.19;;;9.45;43.89
35878;BME280;21982;49.804;24.072;2023-02-18T10:35:42;96593.06;;;9.88;43.38
35878;BME280;21982;49.804;24.072;2023-02-18T10:46:10;96575.78;;;10.78;43.23
35878;BME280;21982;49.804;24.072;2023-02-18T10:48:59;96591.69;;;12.68;42.05
35878;BME280;21982;49.804;24.072;2023-02-18T10:51:31;96578.19;;;13.91;40.28
35878;BME280;21982;49.804;24.072;2023-02-18T10:53:58;96558.09;;;14.84;38.00
35878;BME280;21982;49.804;24.072;2023-02-18T10:59:21;96558.09;;;16.04;36.14
35878;BME280;21982;49.804;24.072;2023-02-18T11:01:54;96455.75;;;15.82;35.58
35878;BME280;21982;49.804;24.072;2023-02-18T11:04:25;96378.03;;;15.50;34.54
35878;BME280;21982;49.804;24.072;2023-02-18T11:06:52;96547.06;;;16.62;33.83
35878;BME280;21982;49.804;24.072;2023-02-18T11:09:26;96577.34;;;16.85;33.65
35878;BME280;21982;49.804;24.072;2023-02-18T11:12:05;96585.13;;;17.25;33.72
35878;BME280;21982;49.804;24.072;2023-02-18T11:17:39;96570.88;;;17.63;33.25
35878;BME280;21982;49.804;24.072;2023-02-18T11:20:28;96569.06;;;17.90;32.43
35878;BME280;21982;49.804;24.072;2023-02-18T11:25:33;96529.56;;;18.07;31.79
35878;BME280;21982;49.804;24.072;2023-02-18T11:28:04;96384.81;;;16.85;31.81
35878;BME280;21982;49.804;24.072;2023-02-18T11:30:39;96568.28;;;16.86;32.52
35878;BME280;21982;49.804;24.072;2023-02-18T11:33:09;96471.94;;;15.35;32.48
35878;BME280;21982;49.804;24.072;2023-02-18T11:35:50;96565.72;;;14.92;33.46
35878;BME280;21982;49.804;24.072;2023-02-18T11:38:33;96505.13;;;14.40;34.16
35878;BME280;21982;49.804;24.072;2023-02-18T11:41:08;96392.94;;;13.67;34.06
35878;BME280;21982;49.804;24.072;2023-02-18T11:43:34;96558.69;;;14.51;34.27
35878;BME280;21982;49.804;24.072;2023-02-18T11:46:21;96547.06;;;14.57;33.90
35878;BME280;21982;49.804;24.072;2023-02-18T11:48:47;96557.25;;;14.95;33.90
35878;BME280;21982;49.804;24.072;2023-02-18T11:51:16;96442.25;;;14.28;33.30
35878;BME280;21982;49.804;24.072;2023-02-18T11:54:03;96530.47;;;15.13;33.05
35878;BME280;21982;49.804;24.072;2023-02-18T11:56:32;96500.56;;;14.99;33.04
35878;BME280;21982;49.804;24.072;2023-02-18T11:58:59;96461.59;;;14.35;33.03
35878;BME280;21982;49.804;24.072;2023-02-18T12:07:00;96523.81;;;14.75;33.17
35878;BME280;21982;49.804;24.072;2023-02-18T12:09:36;96511.97;;;14.71;33.06
35878;BME280;21982;49.804;24.072;2023-02-18T12:12:12;96538.88;;;14.82;32.82
35878;BME280;21982;49.804;24.072;2023-02-18T12:14:40;96524.31;;;15.24;32.65
35878;BME280;21982;49.804;24.072;2023-02-18T12:17:34;96542.00;;;15.30;32.64
35878;BME280;21982;49.804;24.072;2023-02-18T12:25:28;96524.91;;;13.68;32.04
35878;BME280;21982;49.804;24.072;2023-02-18T12:36:13;96535.19;;;12.12;33.08
35878;BME280;21982;49.804;24.072;2023-02-18T12:44:33;96543.66;;;11.64;33.75
35878;BME280;21982;49.804;24.072;2023-02-18T12:47:15;96410.72;;;10.91;33.43
35878;BME280;21982;49.804;24.072;2023-02-18T12:55:54;96518.94;;;12.01;34.17
35878;BME280;21982;49.804;24.072;2023-02-18T13:01:44;96527.25;;;11.80;34.27
35878;BME280;21982;49.804;24.072;2023-02-18T13:12:17;96539.03;;;11.84;34.56
35878;BME280;21982;49.804;24.072;2023-02-18T13:14:54;96127.22;;;9.60;34.25
35878;BME280;21982;49.804;24.072;2023-02-18T13:17:26;96336.53;;;11.22;34.39
35878;BME280;21982;49.804;24.072;2023-02-18T13:19:56;96339.38;;;10.96;34.37
35878;BME280;21982;49.804;24.072;2023-02-18T13:22:24;96499.38;;;11.64;34.55
35878;BME280;21982;49.804;24.072;2023-02-18T13:24:53;96467.94;;;10.98;34.48
35878;BME280;21982;49.804;24.072;2023-02-18T13:27:45;96515.31;;;11.20;34.75
35878;BME280;21982;49.804;24.072;2023-02-18T13:33:04;96445.16;;;10.39;35.09
35878;BME280;21982;49.804;24.072;2023-02-18T13:35:45;96375.34;;;10.14;35.59
35878;BME280;21982;49.804;24.072;2023-02-18T13:38:20;96551.31;;;10.89;35.14
35878;BME280;21982;49.804;24.072;2023-02-18T13:40:51;96501.81;;;11.34;35.47
35878;BME280;21982;49.804;24.072;2023-02-18T13:43:20;96521.66;;;11.57;34.95
35878;BME280;21982;49.804;24.072;2023-02-18T13:46:15;96516.94;;;11.59;35.47
35878;BME280;21982;49.804;24.072;2023-02-18T13:49:06;96534.25;;;11.30;34.73
35878;BME280;21982;49.804;24.072;2023-02-18T13:51:44;96504.22;;;10.91;35.36
35878;BME280;21982;49.804;24.072;2023-02-18T13:57:06;96509.63;;;10.52;35.15
35878;BME280;21982;49.804;24.072;2023-02-18T13:59:44;96531.25;;;10.35;34.89
35878;BME280;21982;49.804;24.072;2023-02-18T14:09:51;96502.50;;;10.52;35.39
35878;BME280;21982;49.804;24.072;2023-02-18T14:12:39;96534.25;;;10.65;35.22
35878;BME280;21982;49.804;24.072;2023-02-18T14:17:42;96526.63;;;10.95;35.49
35878;BME280;21982;49.804;24.072;2023-02-18T14:22:44;96506.56;;;10.61;35.85
35878;BME280;21982;49.804;24.072;2023-02-18T14:27:38;96486.19;;;10.68;35.56
35878;BME280;21982;49.804;24.072;2023-02-18T14:30:15;96501.78;;;10.90;35.00
35878;BME280;21982;49.804;24.072;2023-02-18T14:32:42;96449.66;;;10.26;35.13
35878;BME280;21982;49.804;24.072;2023-02-18T14:37:59;96526.53;;;10.18;35.69
35878;BME280;21982;49.804;24.072;2023-02-18T14:43:18;96507.63;;;9.81;35.96
35878;BME280;21982;49.804;24.072;2023-02-18T14:46:04;96336.97;;;8.60;36.31
35878;BME280;21982;49.804;24.072;2023-02-18T14:48:55;96376.75;;;8.71;36.56
35878;BME280;21982;49.804;24.072;2023-02-18T14:51:28;96487.44;;;9.40;36.85
35878;BME280;21982;49.804;24.072;2023-02-18T14:53:55;96495.56;;;9.32;36.29
35878;BME280;21982;49.804;24.072;2023-02-18T14:56:21;96438.75;;;8.89;36.42
35878;BME280;21982;49.804;24.072;2023-02-18T14:58:50;96402.72;;;8.68;36.20
35878;BME280;21982;49.804;24.072;2023-02-18T15:03:47;96386.53;;;8.30;37.23
35878;BME280;21982;49.804;24.072;2023-02-18T15:06:42;96240.59;;;7.21;37.19
35878;BME280;21982;49.804;24.072;2023-02-18T15:09:18;96431.94;;;8.53;37.30
35878;BME280;21982;49.804;24.072;2023-02-18T15:11:44;96486.88;;;8.84;37.72
35878;BME280;21982;49.804;24.072;2023-02-18T15:14:22;96484.66;;;8.88;37.60
35878;BME280;21982;49.804;24.072;2023-02-18T15:16:49;96506.28;;;8.70;38.11
35878;BME280;21982;49.804;24.072;2023-02-18T15:19:17;96500.50;;;8.88;38.48
35878;BME280;21982;49.804;24.072;2023-02-18T15:21:46;96495.41;;;8.86;38.52
35878;BME280;21982;49.804;24.072;2023-02-18T15:24:35;96489.28;;;8.79;38.67
35878;BME280;21982;49.804;24.072;2023-02-18T15:27:04;96367.41;;;7.80;38.93